sensor_id;sensor_type;location;lat;lon;timestamp;P1;durP1;ratioP1;P2;durP2;ratioP2
27257;SDS011;62045;49.986;8.672;2022-11-21T00:04:39;3.25;;;1.88;;
27257;SDS011;62045;49.986;8.672;2022-11-21T00:09:41;2.17;;;1.48;;
27257;SDS011;62045;49.986;8.672;2022-11-21T00:14:42;2.50;;;1.40;;
27257;SDS011;62045;49.986;8.672;2022-11-21T00:19:43;2.85;;;1.40;;
27257;SDS011;62045;49.986;8.672;2022-11-21T00:24:45;2.78;;;1.52;;
27257;SDS011;62045;49.986;8.672;2022-11-21T00:29:46;2.60;;;1.52;;
27257;SDS011;62045;49.986;8.672;2022-11-21T00:34:46;2.78;;;1.50;;
27257;SDS011;62045;49.986;8.672;2022-11-21T00:39:48;3.03;;;1.60;;
27257;SDS011;62045;49.986;8.672;2022-11-21T00:44:49;4.40;;;1.60;;
27257;SDS011;62045;49.986;8.672;2022-11-21T00:49:50;2.55;;;1.40;;
27257;SDS011;62045;49.986;8.672;2022-11-21T00:54:52;3.72;;;1.65;;
27257;SDS011;62045;49.986;8.672;2022-11-21T00:59:52;3.22;;;1.67;;
27257;SDS011;62045;49.986;8.672;2022-11-21T01:04:53;2.38;;;1.20;;
27257;SDS011;62045;49.986;8.672;2022-11-21T01:09:55;2.95;;;1.42;;
27257;SDS011;62045;49.986;8.672;2022-11-21T01:14:56;2.50;;;1.42;;
27257;SDS011;62045;49.986;8.672;2022-11-21T01:19:56;3.20;;;1.42;;
27257;SDS011;62045;49.986;8.672;2022-11-21T01:24:58;2.65;;;1.65;;
27257;SDS011;62045;49.986;8.672;2022-11-21T01:29:59;3.53;;;1.20;;
27257;SDS011;62045;49.986;8.672;2022-11-21T01:35:00;2.38;;;1.20;;
27257;SDS011;62045;49.986;8.672;2022-11-21T01:40:02;2.75;;;1.30;;
27257;SDS011;62045;49.986;8.672;2022-11-21T01:50:37;3.00;;;1.20;;
27257;SDS011;62045;49.986;8.672;2022-11-21T01:55:39;2.05;;;1.15;;
27257;SDS011;62045;49.986;8.672;2022-11-21T02:00:40;2.78;;;1.38;;
27257;SDS011;62045;49.986;8.672;2022-11-21T02:05:44;2.03;;;1.10;;
27257;SDS011;62045;49.986;8.672;2022-11-21T02:10:49;2.88;;;1.20;;
27257;SDS011;62045;49.986;8.672;2022-11-21T02:15:56;3.22;;;1.50;;
27257;SDS011;62045;49.986;8.672;2022-11-21T02:20:58;2.10;;;1.05;;
27257;SDS011;62045;49.986;8.672;2022-11-21T02:26:06;2.63;;;1.13;;
27257;SDS011;62045;49.986;8.672;2022-11-21T02:31:07;2.58;;;1.20;;
27257;SDS011;62045;49.986;8.672;2022-11-21T02:41:32;1.85;;;0.93;;
27257;SDS011;62045;49.986;8.672;2022-11-21T02:46:36;2.00;;;0.90;;
27257;SDS011;62045;49.986;8.672;2022-11-21T02:51:47;2.53;;;1.08;;
27257;SDS011;62045;49.986;8.672;2022-11-21T02:56:49;1.90;;;1.02;;
27257;SDS011;62045;49.986;8.672;2022-11-21T03:01:50;2.17;;;1.00;;
27257;SDS011;62045;49.986;8.672;2022-11-21T03:06:51;2.03;;;1.20;;
27257;SDS011;62045;49.986;8.672;2022-11-21T03:11:53;2.00;;;1.00;;
27257;SDS011;62045;49.986;8.672;2022-11-21T03:16:53;2.15;;;0.93;;
27257;SDS011;62045;49.986;8.672;2022-11-21T03:21:54;2.38;;;1.23;;
27257;SDS011;62045;49.986;8.672;2022-11-21T03:26:56;1.55;;;0.85;;
27257;SDS011;62045;49.986;8.672;2022-11-21T03:31:57;4.22;;;1.05;;
27257;SDS011;62045;49.986;8.672;2022-11-21T03:36:58;1.55;;;0.82;;
27257;SDS011;62045;49.986;8.672;2022-11-21T03:42:00;2.33;;;1.10;;
27257;SDS011;62045;49.986;8.672;2022-11-21T03:47:01;2.05;;;0.82;;
27257;SDS011;62045;49.986;8.672;2022-11-21T03:52:01;2.53;;;1.10;;
27257;SDS011;62045;49.986;8.672;2022-11-21T03:57:03;1.88;;;1.00;;
27257;SDS011;62045;49.986;8.672;2022-11-21T04:02:04;1.40;;;0.80;;
27257;SDS011;62045;49.986;8.672;2022-11-21T04:07:05;1.90;;;1.00;;
27257;SDS011;62045;49.986;8.672;2022-11-21T04:12:07;1.75;;;1.00;;
27257;SDS011;62045;49.986;8.672;2022-11-21T04:17:08;2.08;;;0.88;;
27257;SDS011;62045;49.986;8.672;2022-11-21T04:22:08;1.60;;;0.70;;
27257;SDS011;62045;49.986;8.672;2022-11-21T04:27:10;2.05;;;0.88;;
27257;SDS011;62045;49.986;8.672;2022-11-21T04:32:11;2.80;;;1.02;;
27257;SDS011;62045;49.986;8.672;2022-11-21T04:37:12;2.28;;;0.80;;
27257;SDS011;62045;49.986;8.672;2022-11-21T04:42:14;1.85;;;0.70;;
27257;SDS011;62045;49.986;8.672;2022-11-21T04:47:15;1.80;;;0.70;;
27257;SDS011;62045;49.986;8.672;2022-11-21T04:52:15;2.15;;;0.82;;
27257;SDS011;62045;49.986;8.672;2022-11-21T04:57:17;1.33;;;0.70;;
27257;SDS011;62045;49.986;8.672;2022-11-21T05:02:18;2.13;;;0.73;;
27257;SDS011;62045;49.986;8.672;2022-11-21T05:07:19;1.63;;;0.75;;
27257;SDS011;62045;49.986;8.672;2022-11-21T05:12:21;2.38;;;0.70;;
27257;SDS011;62045;49.986;8.672;2022-11-21T05:17:22;2.88;;;0.80;;
27257;SDS011;62045;49.986;8.672;2022-11-21T05:22:22;1.63;;;0.82;;
27257;SDS011;62045;49.986;8.672;2022-11-21T05:27:24;1.85;;;0.70;;
27257;SDS011;62045;49.986;8.672;2022-11-21T05:32:25;1.45;;;0.80;;
27257;SDS011;62045;49.986;8.672;2022-11-21T05:37:26;1.67;;;0.50;;
27257;SDS011;62045;49.986;8.672;2022-11-21T05:42:28;1.50;;;0.70;;
27257;SDS011;62045;49.986;8.672;2022-11-21T05:47:29;1.92;;;0.80;;
27257;SDS011;62045;49.986;8.672;2022-11-21T05:52:29;1.80;;;0.60;;
27257;SDS011;62045;49.986;8.672;2022-11-21T05:57:31;1.38;;;0.70;;
27257;SDS011;62045;49.986;8.672;2022-11-21T06:02:32;2.17;;;0.75;;
27257;SDS011;62045;49.986;8.672;2022-11-21T06:07:33;2.00;;;0.90;;
27257;SDS011;62045;49.986;8.672;2022-11-21T06:12:35;2.00;;;0.88;;
27257;SDS011;62045;49.986;8.672;2022-11-21T06:17:36;1.88;;;0.73;;
27257;SDS011;62045;49.986;8.672;2022-11-21T06:22:36;2.75;;;0.70;;
27257;SDS011;62045;49.986;8.672;2022-11-21T06:27:38;1.67;;;0.73;;
27257;SDS011;62045;49.986;8.672;2022-11-21T06:32:39;1.88;;;0.80;;
27257;SDS011;62045;49.986;8.672;2022-11-21T06:37:40;1.33;;;0.60;;
27257;SDS011;62045;49.986;8.672;2022-11-21T06:42:42;1.85;;;0.70;;
27257;SDS011;62045;49.986;8.672;2022-11-21T06:47:42;1.67;;;0.65;;
27257;SDS011;62045;49.986;8.672;2022-11-21T06:52:43;2.10;;;0.52;;
27257;SDS011;62045;49.986;8.672;2022-11-21T06:57:45;1.67;;;0.60;;
27257;SDS011;62045;49.986;8.672;2022-11-21T07:02:46;1.60;;;0.60;;
27257;SDS011;62045;49.986;8.672;2022-11-21T07:07:46;1.35;;;0.50;;
27257;SDS011;62045;49.986;8.672;2022-11-21T07:12:48;1.85;;;0.70;;
27257;SDS011;62045;49.986;8.672;2022-11-21T07:17:49;1.83;;;0.60;;
27257;SDS011;62045;49.986;8.672;2022-11-21T07:22:52;1.65;;;0.77;;
27257;SDS011;62045;49.986;8.672;2022-11-21T07:27:54;1.80;;;0.60;;
27257;SDS011;62045;49.986;8.672;2022-11-21T07:32:57;1.88;;;0.60;;
27257;SDS011;62045;49.986;8.672;2022-11-21T07:38:00;1.35;;;0.50;;
27257;SDS011;62045;49.986;8.672;2022-11-21T07:43:02;2.80;;;1.15;;
27257;SDS011;62045;49.986;8.672;2022-11-21T07:48:05;1.90;;;0.60;;
27257;SDS011;62045;49.986;8.672;2022-11-21T07:53:08;1.45;;;0.68;;
27257;SDS011;62045;49.986;8.672;2022-11-21T07:58:11;1.65;;;0.65;;
27257;SDS011;62045;49.986;8.672;2022-11-21T08:03:14;1.50;;;0.60;;
27257;SDS011;62045;49.986;8.672;2022-11-21T08:08:15;1.00;;;0.57;;
27257;SDS011;62045;49.986;8.672;2022-11-21T08:13:17;1.25;;;0.60;;
27257;SDS011;62045;49.986;8.672;2022-11-21T08:18:17;2.42;;;0.60;;
27257;SDS011;62045;49.986;8.672;2022-11-21T08:23:18;1.83;;;0.63;;
27257;SDS011;62045;49.986;8.672;2022-11-21T08:28:20;4.43;;;0.90;;
27257;SDS011;62045;49.986;8.672;2022-11-21T08:33:21;1.42;;;0.70;;
27257;SDS011;62045;49.986;8.672;2022-11-21T08:38:22;3.53;;;0.77;;
27257;SDS011;62045;49.986;8.672;2022-11-21T08:43:24;2.33;;;0.65;;
27257;SDS011;62045;49.986;8.672;2022-11-21T08:48:24;5.53;;;0.65;;
27257;SDS011;62045;49.986;8.672;2022-11-21T08:53:25;2.22;;;0.75;;
27257;SDS011;62045;49.986;8.672;2022-11-21T08:58:27;1.77;;;0.60;;
27257;SDS011;62045;49.986;8.672;2022-11-21T09:03:28;1.50;;;0.60;;
27257;SDS011;62045;49.986;8.672;2022-11-21T09:08:28;1.42;;;0.50;;
27257;SDS011;62045;49.986;8.672;2022-11-21T09:13:31;1.05;;;0.50;;
27257;SDS011;62045;49.986;8.672;2022-11-21T09:18:31;1.45;;;0.40;;
27257;SDS011;62045;49.986;8.672;2022-11-21T09:23:32;1.88;;;0.70;;
27257;SDS011;62045;49.986;8.672;2022-11-21T09:28:34;1.77;;;0.60;;
27257;SDS011;62045;49.986;8.672;2022-11-21T09:33:35;1.85;;;0.40;;
27257;SDS011;62045;49.986;8.672;2022-11-21T09:38:36;1.88;;;0.63;;
27257;SDS011;62045;49.986;8.672;2022-11-21T09:43:41;1.85;;;0.60;;
27257;SDS011;62045;49.986;8.672;2022-11-21T09:48:52;2.63;;;0.85;;
27257;SDS011;62045;49.986;8.672;2022-11-21T09:59:06;2.33;;;0.60;;
27257;SDS011;62045;49.986;8.672;2022-11-21T10:04:18;1.88;;;0.50;;
27257;SDS011;62045;49.986;8.672;2022-11-21T10:09:21;2.90;;;0.47;;
27257;SDS011;62045;49.986;8.672;2022-11-21T10:14:33;2.08;;;0.52;;
27257;SDS011;62045;49.986;8.672;2022-11-21T10:19:47;2.35;;;0.73;;
27257;SDS011;62045;49.986;8.672;2022-11-21T10:25:10;3.63;;;0.93;;
27257;SDS011;62045;49.986;8.672;2022-11-21T10:30:15;2.13;;;0.50;;
27257;SDS011;62045;49.986;8.672;2022-11-21T10:40:27;2.53;;;0.70;;
27257;SDS011;62045;49.986;8.672;2022-11-21T10:45:33;2.90;;;0.88;;
27257;SDS011;62045;49.986;8.672;2022-11-21T10:50:45;3.55;;;0.70;;
27257;SDS011;62045;49.986;8.672;2022-11-21T10:56:00;4.97;;;0.90;;
27257;SDS011;62045;49.986;8.672;2022-11-21T11:01:04;3.95;;;1.00;;
27257;SDS011;62045;49.986;8.672;2022-11-21T11:06:06;5.32;;;1.02;;
27257;SDS011;62045;49.986;8.672;2022-11-21T11:11:11;9.55;;;1.05;;
27257;SDS011;62045;49.986;8.672;2022-11-21T11:16:15;4.05;;;0.77;;
27257;SDS011;62045;49.986;8.672;2022-11-21T11:21:18;2.55;;;0.60;;
27257;SDS011;62045;49.986;8.672;2022-11-21T11:26:25;2.63;;;0.60;;
27257;SDS011;62045;49.986;8.672;2022-11-21T11:31:30;3.55;;;0.57;;
27257;SDS011;62045;49.986;8.672;2022-11-21T11:36:42;3.08;;;0.70;;
27257;SDS011;62045;49.986;8.672;2022-11-21T11:41:58;1.63;;;0.60;;
27257;SDS011;62045;49.986;8.672;2022-11-21T11:47:20;2.40;;;0.95;;
27257;SDS011;62045;49.986;8.672;2022-11-21T11:52:24;2.20;;;0.77;;
27257;SDS011;62045;49.986;8.672;2022-11-21T11:57:29;2.58;;;0.82;;
27257;SDS011;62045;49.986;8.672;2022-11-21T12:02:37;5.05;;;0.55;;
27257;SDS011;62045;49.986;8.672;2022-11-21T12:07:46;2.80;;;0.60;;
27257;SDS011;62045;49.986;8.672;2022-11-21T12:13:01;1.52;;;0.50;;
27257;SDS011;62045;49.986;8.672;2022-11-21T12:18:11;2.00;;;0.70;;
27257;SDS011;62045;49.986;8.672;2022-11-21T12:23:19;1.38;;;0.45;;
27257;SDS011;62045;49.986;8.672;2022-11-21T12:28:22;2.05;;;0.50;;
27257;SDS011;62045;49.986;8.672;2022-11-21T12:33:27;2.28;;;0.52;;
27257;SDS011;62045;49.986;8.672;2022-11-21T12:38:38;2.70;;;0.70;;
27257;SDS011;62045;49.986;8.672;2022-11-21T12:43:52;1.88;;;0.55;;
27257;SDS011;62045;49.986;8.672;2022-11-21T12:49:01;1.02;;;0.40;;
27257;SDS011;62045;49.986;8.672;2022-11-21T12:54:12;1.17;;;0.50;;
27257;SDS011;62045;49.986;8.672;2022-11-21T12:59:24;2.05;;;0.57;;
27257;SDS011;62045;49.986;8.672;2022-11-21T13:04:27;2.25;;;0.40;;
27257;SDS011;62045;49.986;8.672;2022-11-21T13:09:31;3.33;;;0.68;;
27257;SDS011;62045;49.986;8.672;2022-11-21T13:14:39;1.05;;;0.40;;
27257;SDS011;62045;49.986;8.672;2022-11-21T13:19:49;2.58;;;0.50;;
27257;SDS011;62045;49.986;8.672;2022-11-21T13:24:55;1.15;;;0.40;;
27257;SDS011;62045;49.986;8.672;2022-11-21T13:30:17;0.93;;;0.45;;
27257;SDS011;62045;49.986;8.672;2022-11-21T13:41:05;1.50;;;0.50;;
27257;SDS011;62045;49.986;8.672;2022-11-21T13:51:13;1.02;;;0.40;;
27257;SDS011;62045;49.986;8.672;2022-11-21T13:56:29;1.08;;;0.40;;
27257;SDS011;62045;49.986;8.672;2022-11-21T14:01:42;1.40;;;0.43;;
27257;SDS011;62045;49.986;8.672;2022-11-21T14:06:54;2.58;;;0.70;;
27257;SDS011;62045;49.986;8.672;2022-11-21T14:11:57;3.25;;;0.50;;
27257;SDS011;62045;49.986;8.672;2022-11-21T14:22:34;2.22;;;0.60;;
27257;SDS011;62045;49.986;8.672;2022-11-21T14:27:42;1.45;;;0.43;;
27257;SDS011;62045;49.986;8.672;2022-11-21T14:32:48;1.45;;;0.43;;
27257;SDS011;62045;49.986;8.672;2022-11-21T14:42:51;2.15;;;0.68;;
27257;SDS011;62045;49.986;8.672;2022-11-21T14:47:52;1.77;;;0.32;;
27257;SDS011;62045;49.986;8.672;2022-11-21T14:52:57;1.55;;;0.43;;
27257;SDS011;62045;49.986;8.672;2022-11-21T14:58:03;1.63;;;0.50;;
27257;SDS011;62045;49.986;8.672;2022-11-21T15:03:14;2.67;;;0.45;;
27257;SDS011;62045;49.986;8.672;2022-11-21T15:08:20;0.75;;;0.30;;
27257;SDS011;62045;49.986;8.672;2022-11-21T15:13:23;1.23;;;0.45;;
27257;SDS011;62045;49.986;8.672;2022-11-21T15:18:27;0.73;;;0.25;;
27257;SDS011;62045;49.986;8.672;2022-11-21T15:23:29;1.17;;;0.52;;
27257;SDS011;62045;49.986;8.672;2022-11-21T15:28:33;0.50;;;0.23;;
27257;SDS011;62045;49.986;8.672;2022-11-21T15:38:52;1.40;;;0.32;;
27257;SDS011;62045;49.986;8.672;2022-11-21T15:44:13;1.83;;;0.57;;
27257;SDS011;62045;49.986;8.672;2022-11-21T15:49:19;2.13;;;0.35;;
27257;SDS011;62045;49.986;8.672;2022-11-21T15:54:20;1.75;;;0.50;;
27257;SDS011;62045;49.986;8.672;2022-11-21T15:59:22;2.38;;;0.60;;
27257;SDS011;62045;49.986;8.672;2022-11-21T16:04:23;1.27;;;0.43;;
27257;SDS011;62045;49.986;8.672;2022-11-21T16:09:24;1.33;;;0.50;;
27257;SDS011;62045;49.986;8.672;2022-11-21T16:14:26;1.05;;;0.40;;
27257;SDS011;62045;49.986;8.672;2022-11-21T16:19:26;2.13;;;0.50;;
27257;SDS011;62045;49.986;8.672;2022-11-21T16:24:27;1.35;;;0.50;;
27257;SDS011;62045;49.986;8.672;2022-11-21T16:29:29;1.40;;;0.52;;
27257;SDS011;62045;49.986;8.672;2022-11-21T16:34:30;1.45;;;0.50;;
27257;SDS011;62045;49.986;8.672;2022-11-21T16:39:30;1.85;;;0.57;;
27257;SDS011;62045;49.986;8.672;2022-11-21T16:44:32;3.05;;;0.50;;
27257;SDS011;62045;49.986;8.672;2022-11-21T16:49:33;1.70;;;0.57;;
27257;SDS011;62045;49.986;8.672;2022-11-21T16:54:34;1.13;;;0.45;;
27257;SDS011;62045;49.986;8.672;2022-11-21T16:59:36;3.15;;;0.68;;
27257;SDS011;62045;49.986;8.672;2022-11-21T17:04:37;1.80;;;0.60;;
27257;SDS011;62045;49.986;8.672;2022-11-21T17:09:37;1.60;;;0.50;;
27257;SDS011;62045;49.986;8.672;2022-11-21T17:14:39;2.03;;;0.60;;
27257;SDS011;62045;49.986;8.672;2022-11-21T17:19:40;1.10;;;0.47;;
27257;SDS011;62045;49.986;8.672;2022-11-21T17:24:41;4.05;;;0.70;;
27257;SDS011;62045;49.986;8.672;2022-11-21T17:29:43;2.35;;;0.70;;
27257;SDS011;62045;49.986;8.672;2022-11-21T17:34:44;1.30;;;0.45;;
27257;SDS011;62045;49.986;8.672;2022-11-21T17:39:44;1.25;;;0.50;;
27257;SDS011;62045;49.986;8.672;2022-11-21T17:44:46;1.80;;;0.65;;
27257;SDS011;62045;49.986;8.672;2022-11-21T17:49:47;1.67;;;0.47;;
27257;SDS011;62045;49.986;8.672;2022-11-21T17:54:48;1.13;;;0.50;;
27257;SDS011;62045;49.986;8.672;2022-11-21T17:59:50;1.38;;;0.70;;
27257;SDS011;62045;49.986;8.672;2022-11-21T18:04:50;3.10;;;1.38;;
27257;SDS011;62045;49.986;8.672;2022-11-21T18:09:53;1.88;;;0.73;;
27257;SDS011;62045;49.986;8.672;2022-11-21T18:14:56;2.57;;;0.70;;
27257;SDS011;62045;49.986;8.672;2022-11-21T18:19:56;1.80;;;0.60;;
27257;SDS011;62045;49.986;8.672;2022-11-21T18:24:57;1.52;;;0.40;;
27257;SDS011;62045;49.986;8.672;2022-11-21T18:29:59;3.60;;;0.68;;
27257;SDS011;62045;49.986;8.672;2022-11-21T18:35:00;1.80;;;0.47;;
27257;SDS011;62045;49.986;8.672;2022-11-21T18:40:01;2.80;;;0.57;;
27257;SDS011;62045;49.986;8.672;2022-11-21T18:45:03;1.60;;;0.47;;
27257;SDS011;62045;49.986;8.672;2022-11-21T18:50:05;2.70;;;0.70;;
27257;SDS011;62045;49.986;8.672;2022-11-21T18:55:06;2.70;;;0.73;;
27257;SDS011;62045;49.986;8.672;2022-11-21T19:00:12;1.35;;;0.50;;
27257;SDS011;62045;49.986;8.672;2022-11-21T19:05:13;1.40;;;0.50;;
27257;SDS011;62045;49.986;8.672;2022-11-21T19:10:14;2.35;;;0.70;;
27257;SDS011;62045;49.986;8.672;2022-11-21T19:15:17;1.23;;;0.47;;
27257;SDS011;62045;49.986;8.672;2022-11-21T19:20:20;1.92;;;0.60;;
27257;SDS011;62045;49.986;8.672;2022-11-21T19:25:21;2.70;;;0.63;;
27257;SDS011;62045;49.986;8.672;2022-11-21T19:30:23;1.85;;;0.60;;
27257;SDS011;62045;49.986;8.672;2022-11-21T19:35:24;1.98;;;0.82;;
27257;SDS011;62045;49.986;8.672;2022-11-21T19:40:25;2.42;;;1.02;;
27257;SDS011;62045;49.986;8.672;2022-11-21T19:45:27;1.73;;;0.60;;
27257;SDS011;62045;49.986;8.672;2022-11-21T19:50:33;2.08;;;1.23;;
27257;SDS011;62045;49.986;8.672;2022-11-21T19:55:34;2.17;;;0.70;;
27257;SDS011;62045;49.986;8.672;2022-11-21T20:00:36;4.65;;;1.10;;
27257;SDS011;62045;49.986;8.672;2022-11-21T20:05:37;4.05;;;1.42;;
27257;SDS011;62045;49.986;8.672;2022-11-21T20:10:38;4.78;;;1.33;;
27257;SDS011;62045;49.986;8.672;2022-11-21T20:15:40;4.75;;;1.27;;
27257;SDS011;62045;49.986;8.672;2022-11-21T20:20:41;4.18;;;1.30;;
27257;SDS011;62045;49.986;8.672;2022-11-21T20:25:42;2.78;;;0.95;;
27257;SDS011;62045;49.986;8.672;2022-11-21T20:30:44;3.72;;;1.23;;
27257;SDS011;62045;49.986;8.672;2022-11-21T20:35:44;3.15;;;1.17;;
27257;SDS011;62045;49.986;8.672;2022-11-21T20:40:50;2.72;;;1.10;;
27257;SDS011;62045;49.986;8.672;2022-11-21T20:45:52;3.97;;;1.23;;
27257;SDS011;62045;49.986;8.672;2022-11-21T20:50:53;3.75;;;1.08;;
27257;SDS011;62045;49.986;8.672;2022-11-21T20:55:57;3.28;;;0.98;;
27257;SDS011;62045;49.986;8.672;2022-11-21T21:01:00;3.67;;;1.17;;
27257;SDS011;62045;49.986;8.672;2022-11-21T21:06:02;2.53;;;0.93;;
27257;SDS011;62045;49.986;8.672;2022-11-21T21:11:05;3.95;;;0.98;;
27257;SDS011;62045;49.986;8.672;2022-11-21T21:16:09;3.33;;;1.13;;
27257;SDS011;62045;49.986;8.672;2022-11-21T21:21:11;3.50;;;1.38;;
27257;SDS011;62045;49.986;8.672;2022-11-21T21:26:14;3.88;;;1.15;;
27257;SDS011;62045;49.986;8.672;2022-11-21T21:31:18;2.60;;;0.97;;
27257;SDS011;62045;49.986;8.672;2022-11-21T21:36:20;3.60;;;1.10;;
27257;SDS011;62045;49.986;8.672;2022-11-21T21:41:23;3.08;;;1.10;;
27257;SDS011;62045;49.986;8.672;2022-11-21T21:46:26;2.50;;;1.10;;
27257;SDS011;62045;49.986;8.672;2022-11-21T21:51:28;3.25;;;0.95;;
27257;SDS011;62045;49.986;8.672;2022-11-21T21:56:30;3.45;;;0.98;;
27257;SDS011;62045;49.986;8.672;2022-11-21T22:01:32;3.22;;;1.15;;
27257;SDS011;62045;49.986;8.672;2022-11-21T22:06:33;4.03;;;1.10;;
27257;SDS011;62045;49.986;8.672;2022-11-21T22:11:34;2.88;;;0.90;;
27257;SDS011;62045;49.986;8.672;2022-11-21T22:16:38;5.00;;;0.90;;
27257;SDS011;62045;49.986;8.672;2022-11-21T22:21:39;2.42;;;0.95;;
27257;SDS011;62045;49.986;8.672;2022-11-21T22:26:39;2.85;;;1.05;;
27257;SDS011;62045;49.986;8.672;2022-11-21T22:31:42;2.53;;;0.90;;
27257;SDS011;62045;49.986;8.672;2022-11-21T22:36:43;3.50;;;1.00;;
27257;SDS011;62045;49.986;8.672;2022-11-21T22:41:43;3.30;;;0.80;;
27257;SDS011;62045;49.986;8.672;2022-11-21T22:46:45;3.90;;;1.00;;
27257;SDS011;62045;49.986;8.672;2022-11-21T22:51:46;3.28;;;0.63;;
27257;SDS011;62045;49.986;8.672;2022-11-21T22:56:47;1.95;;;0.85;;
27257;SDS011;62045;49.986;8.672;2022-11-21T23:01:49;3.15;;;0.80;;
27257;SDS011;62045;49.986;8.672;2022-11-21T23:06:49;2.00;;;0.77;;
27257;SDS011;62045;49.986;8.672;2022-11-21T23:11:50;1.95;;;0.75;;
27257;SDS011;62045;49.986;8.672;2022-11-21T23:16:52;1.67;;;0.70;;
27257;SDS011;62045;49.986;8.672;2022-11-21T23:21:53;2.30;;;0.73;;
27257;SDS011;62045;49.986;8.672;2022-11-21T23:26:53;1.90;;;0.82;;
27257;SDS011;62045;49.986;8.672;2022-11-21T23:31:55;2.95;;;0.80;;
27257;SDS011;62045;49.986;8.672;2022-11-21T23:36:56;4.45;;;0.80;;
27257;SDS011;62045;49.986;8.672;2022-11-21T23:41:57;1.58;;;0.68;;
27257;SDS011;62045;49.986;8.672;2022-11-21T23:46:59;1.25;;;0.55;;
27257;SDS011;62045;49.986;8.672;2022-11-21T23:51:59;2.13;;;0.70;;
27257;SDS011;62045;49.986;8.672;2022-11-21T23:57:00;1.90;;;0.73;;
